Time;durP1;ratioP1;P1;durP2;ratioP2;P2;SDS_P1;SDS_P2;PMS_P1;PMS_P2;Temp;Humidity;BMP_temperature;BMP_pressure;BME280_temperature;BME280_humidity;BME280_pressure;Samples;Min_cycle;Max_cycle;Signal;HPM_P1;HPM_P2
2023/09/25 00:00:07;;;;;;;11.10;10.60;;;;;;;;;;5083934;28;20032;-63
2023/09/25 00:02:33;;;;;;;11.38;10.88;;;;;;;;;;5084045;28;20035;-62
2023/09/25 00:04:58;;;;;;;11.25;10.75;;;;;;;;;;5083519;28;20135;-63
2023/09/25 00:07:23;;;;;;;11.50;11.00;;;;;;;;;;5081984;28;20093;-63
2023/09/25 00:09:50;;;;;;;11.32;10.82;;;;;;;;;;5081324;28;20024;-63
2023/09/25 00:12:15;;;;;;;11.48;10.98;;;;;;;;;;5082932;28;20032;-63
2023/09/25 00:14:41;;;;;;;11.38;10.88;;;;;;;;;;5078450;28;20391;-65
2023/09/25 00:17:07;;;;;;;11.60;11.10;;;;;;;;;;5085502;28;20024;-63
2023/09/25 00:19:32;;;;;;;11.23;10.73;;;;;;;;;;5080081;28;20577;-63
2023/09/25 00:21:57;;;;;;;11.27;10.77;;;;;;;;;;5081572;28;20115;-63
2023/09/25 00:24:23;;;;;;;11.60;11.10;;;;;;;;;;5079829;28;20030;-63
2023/09/25 00:26:49;;;;;;;11.30;10.80;;;;;;;;;;5083509;28;20133;-63
2023/09/25 00:29:14;;;;;;;12.02;11.52;;;;;;;;;;5078152;28;20588;-62
2023/09/25 00:31:39;;;;;;;11.45;10.95;;;;;;;;;;5084330;28;20020;-63
2023/09/25 00:34:05;;;;;;;11.60;11.10;;;;;;;;;;5085508;28;20043;-63
2023/09/25 00:36:30;;;;;;;11.05;10.55;;;;;;;;;;5084764;28;20026;-63
2023/09/25 00:38:55;;;;;;;11.32;10.82;;;;;;;;;;5090006;28;20061;-64
2023/09/25 00:41:21;;;;;;;11.25;10.75;;;;;;;;;;5085437;28;20028;-64
2023/09/25 00:43:46;;;;;;;11.40;10.90;;;;;;;;;;5082082;28;20396;-63
2023/09/25 00:46:12;;;;;;;11.52;11.02;;;;;;;;;;5084000;28;20028;-63
2023/09/25 00:48:42;;;;;;;11.02;10.52;;;;;;;;;;5085785;28;20143;-63
2023/09/25 00:51:08;;;;;;;11.40;10.90;;;;;;;;;;5082956;28;20491;-63
2023/09/25 00:53:33;;;;;;;10.70;10.20;;;;;;;;;;5083595;28;20020;-64
2023/09/25 00:55:58;;;;;;;11.13;10.63;;;;;;;;;;5082448;28;20013;-63
2023/09/25 00:58:24;;;;;;;11.60;11.10;;;;;;;;;;5080106;28;20036;-63
2023/09/25 01:00:50;;;;;;;11.93;11.43;;;;;;;;;;5083682;28;20024;-63
2023/09/25 01:03:15;;;;;;;11.35;10.85;;;;;;;;;;5082217;28;20016;-63
2023/09/25 01:05:40;;;;;;;11.30;10.80;;;;;;;;;;5080723;28;20030;-63
2023/09/25 01:08:07;;;;;;;11.05;10.55;;;;;;;;;;5084295;28;20017;-63
2023/09/25 01:10:32;;;;;;;10.93;10.43;;;;;;;;;;5081513;28;20024;-62
2023/09/25 01:12:59;;;;;;;11.38;10.88;;;;;;;;;;5084949;28;20548;-63
2023/09/25 01:15:25;;;;;;;11.48;10.98;;;;;;;;;;5080109;28;20029;-63
2023/09/25 01:17:51;;;;;;;11.30;10.80;;;;;;;;;;5086072;28;20103;-62
2023/09/25 01:20:17;;;;;;;11.10;10.60;;;;;;;;;;5083067;28;20077;-63
2023/09/25 01:22:49;;;;;;;11.07;10.57;;;;;;;;;;5081544;28;20499;-63
2023/09/25 01:25:18;;;;;;;11.48;10.98;;;;;;;;;;5086329;28;20047;-62
2023/09/25 01:27:44;;;;;;;11.20;10.70;;;;;;;;;;5081300;28;20104;-63
2023/09/25 01:30:10;;;;;;;11.50;11.00;;;;;;;;;;5085183;28;20376;-63
2023/09/25 01:32:37;;;;;;;10.95;10.45;;;;;;;;;;5086012;28;20082;-62
2023/09/25 01:35:04;;;;;;;11.50;11.00;;;;;;;;;;5087732;28;20024;-62
2023/09/25 01:37:29;;;;;;;11.50;11.00;;;;;;;;;;5089937;28;20020;-63
2023/09/25 01:39:55;;;;;;;11.45;10.95;;;;;;;;;;5084259;28;20029;-63
2023/09/25 01:42:20;;;;;;;11.30;10.80;;;;;;;;;;5083516;28;20046;-64
2023/09/25 01:44:45;;;;;;;11.50;11.00;;;;;;;;;;5085745;28;20031;-64
2023/09/25 01:47:11;;;;;;;11.57;11.07;;;;;;;;;;5086427;28;20028;-65
2023/09/25 01:49:36;;;;;;;11.70;11.20;;;;;;;;;;5085009;28;20027;-64
2023/09/25 01:52:07;;;;;;;11.00;10.50;;;;;;;;;;5080731;28;20181;-63
2023/09/25 01:54:33;;;;;;;11.50;11.00;;;;;;;;;;5084495;28;20081;-62
2023/09/25 01:56:58;;;;;;;11.15;10.65;;;;;;;;;;5087110;28;20039;-63
2023/09/25 01:59:23;;;;;;;11.45;10.95;;;;;;;;;;5088118;28;20020;-64
2023/09/25 02:01:49;;;;;;;11.35;10.85;;;;;;;;;;5090496;28;20028;-62
2023/09/25 02:04:17;;;;;;;11.20;10.70;;;;;;;;;;5094447;28;20112;-63
2023/09/25 02:06:42;;;;;;;11.48;10.98;;;;;;;;;;5082850;28;20107;-63
2023/09/25 02:09:10;;;;;;;11.57;11.07;;;;;;;;;;5094502;28;20023;-62
2023/09/25 02:11:35;;;;;;;11.60;11.10;;;;;;;;;;5106313;28;20045;-62
2023/09/25 02:14:02;;;;;;;11.30;10.80;;;;;;;;;;5112873;27;20090;-63
2023/09/25 02:16:27;;;;;;;11.63;11.13;;;;;;;;;;5110729;27;20062;-62
2023/09/25 02:18:52;;;;;;;11.27;10.77;;;;;;;;;;5112294;28;20471;-64
2023/09/25 02:21:18;;;;;;;11.20;10.70;;;;;;;;;;5110986;27;20024;-62
2023/09/25 02:23:43;;;;;;;11.60;11.10;;;;;;;;;;5103527;27;20035;-63
2023/09/25 02:26:08;;;;;;;11.15;10.65;;;;;;;;;;5096707;27;20098;-63
2023/09/25 02:28:34;;;;;;;10.98;10.48;;;;;;;;;;5103609;28;20031;-63
2023/09/25 02:30:59;;;;;;;11.38;10.88;;;;;;;;;;5108812;27;20072;-63
2023/09/25 02:33:25;;;;;;;11.25;10.75;;;;;;;;;;5111349;27;20381;-62
2023/09/25 02:35:51;;;;;;;11.85;11.35;;;;;;;;;;5105398;27;20036;-63
2023/09/25 02:38:16;;;;;;;11.60;11.10;;;;;;;;;;5102555;28;20028;-62
2023/09/25 02:40:41;;;;;;;11.40;10.90;;;;;;;;;;5108879;27;20007;-63
2023/09/25 02:43:07;;;;;;;11.98;11.48;;;;;;;;;;5104768;27;20024;-63
2023/09/25 02:45:32;;;;;;;11.07;10.57;;;;;;;;;;5109651;27;20493;-63
2023/09/25 02:47:58;;;;;;;11.32;10.82;;;;;;;;;;5107917;28;20028;-63
2023/09/25 02:50:23;;;;;;;11.20;10.70;;;;;;;;;;5101728;27;20032;-63
2023/09/25 02:52:49;;;;;;;11.60;11.10;;;;;;;;;;5106889;28;20031;-63
2023/09/25 02:55:14;;;;;;;11.38;10.88;;;;;;;;;;5105916;28;20427;-63
2023/09/25 02:57:39;;;;;;;11.43;10.93;;;;;;;;;;5107225;27;20073;-62
2023/09/25 03:00:11;;;;;;;11.20;10.70;;;;;;;;;;5110793;27;20024;-62
2023/09/25 03:02:37;;;;;;;11.38;10.88;;;;;;;;;;5107331;28;20015;-62
2023/09/25 03:05:04;;;;;;;11.48;10.98;;;;;;;;;;5104501;27;20114;-63
2023/09/25 03:07:30;;;;;;;11.45;10.95;;;;;;;;;;5100100;27;20038;-62
2023/09/25 03:09:55;;;;;;;11.90;11.40;;;;;;;;;;5106947;27;20020;-62
2023/09/25 03:12:20;;;;;;;11.70;11.20;;;;;;;;;;5107715;27;20028;-64
2023/09/25 03:14:46;;;;;;;11.10;10.60;;;;;;;;;;5104415;28;20018;-63
2023/09/25 03:17:12;;;;;;;11.55;11.05;;;;;;;;;;5106564;27;20039;-63
2023/09/25 03:19:38;;;;;;;11.25;10.75;;;;;;;;;;5108283;27;20080;-62
2023/09/25 03:22:03;;;;;;;11.40;10.90;;;;;;;;;;5104068;27;20095;-62
2023/09/25 03:24:30;;;;;;;11.35;10.85;;;;;;;;;;5110114;28;20051;-64
2023/09/25 03:26:55;;;;;;;11.27;10.77;;;;;;;;;;5111690;27;20031;-62
2023/09/25 03:29:21;;;;;;;11.30;10.80;;;;;;;;;;5116297;27;20024;-63
2023/09/25 03:31:46;;;;;;;11.85;11.35;;;;;;;;;;5114127;27;20486;-61
2023/09/25 03:34:11;;;;;;;11.30;10.80;;;;;;;;;;5110577;27;20016;-63
2023/09/25 03:36:37;;;;;;;11.43;10.93;;;;;;;;;;5104413;27;20046;-63
2023/09/25 03:39:02;;;;;;;11.32;10.82;;;;;;;;;;5105366;27;20020;-64
2023/09/25 03:41:28;;;;;;;11.70;11.20;;;;;;;;;;5102914;28;20022;-63
2023/09/25 03:43:53;;;;;;;11.48;10.98;;;;;;;;;;5104432;27;20062;-61
2023/09/25 03:46:18;;;;;;;11.70;11.20;;;;;;;;;;5102602;27;20059;-62
2023/09/25 03:48:44;;;;;;;11.65;11.15;;;;;;;;;;5104723;27;20020;-63
2023/09/25 03:51:09;;;;;;;11.27;10.77;;;;;;;;;;5101304;28;20043;-63
2023/09/25 03:53:34;;;;;;;11.10;10.60;;;;;;;;;;5087117;28;20016;-63
2023/09/25 03:56:00;;;;;;;11.65;11.15;;;;;;;;;;5107114;27;20087;-63
2023/09/25 03:58:25;;;;;;;11.52;11.02;;;;;;;;;;5107576;27;20119;-63
2023/09/25 04:00:52;;;;;;;11.70;11.20;;;;;;;;;;5105055;27;20071;-63
2023/09/25 04:03:17;;;;;;;11.30;10.80;;;;;;;;;;5103849;28;20485;-64
2023/09/25 04:05:43;;;;;;;11.80;11.30;;;;;;;;;;5097145;28;20031;-64
2023/09/25 04:08:09;;;;;;;11.50;11.00;;;;;;;;;;5093772;28;20044;-62
2023/09/25 04:10:35;;;;;;;11.30;10.80;;;;;;;;;;5110665;28;20538;-64
2023/09/25 04:13:00;;;;;;;11.82;11.32;;;;;;;;;;5108397;27;20094;-63
2023/09/25 04:15:26;;;;;;;11.52;11.02;;;;;;;;;;5103842;28;20118;-63
2023/09/25 04:17:51;;;;;;;11.45;10.95;;;;;;;;;;5105321;28;20031;-64
2023/09/25 04:20:25;;;;;;;11.35;10.85;;;;;;;;;;5106978;27;20032;-64
2023/09/25 04:22:52;;;;;;;11.40;10.90;;;;;;;;;;5086468;28;20130;-64
2023/09/25 04:25:20;;;;;;;11.82;11.32;;;;;;;;;;5103188;28;20130;-63
2023/09/25 04:27:46;;;;;;;11.82;11.32;;;;;;;;;;5102859;27;20027;-64
2023/09/25 04:30:14;;;;;;;11.13;10.63;;;;;;;;;;5100550;28;20024;-64
2023/09/25 04:32:41;;;;;;;11.10;10.60;;;;;;;;;;5102474;28;20471;-62
2023/09/25 04:35:07;;;;;;;11.98;11.48;;;;;;;;;;5107494;28;20384;-63
2023/09/25 04:37:33;;;;;;;11.70;11.20;;;;;;;;;;5103277;28;20316;-60
2023/09/25 04:39:58;;;;;;;11.63;11.13;;;;;;;;;;5107010;28;20079;-61
2023/09/25 04:42:24;;;;;;;15.15;14.43;;;;;;;;;;5105668;28;20045;-61
2023/09/25 04:44:49;;;;;;;11.77;11.27;;;;;;;;;;5103141;28;20020;-64
2023/09/25 04:47:14;;;;;;;11.45;10.95;;;;;;;;;;5108114;28;20070;-64
2023/09/25 04:49:40;;;;;;;11.25;10.75;;;;;;;;;;5104964;28;20054;-63
2023/09/25 04:52:05;;;;;;;11.60;11.10;;;;;;;;;;5108333;27;20115;-64
2023/09/25 04:54:31;;;;;;;11.18;10.68;;;;;;;;;;5102005;27;20030;-64
2023/09/25 04:56:56;;;;;;;11.73;11.23;;;;;;;;;;5106566;27;20524;-62
2023/09/25 04:59:23;;;;;;;12.55;11.95;;;;;;;;;;5106116;27;20048;-63
2023/09/25 05:01:49;;;;;;;11.35;10.85;;;;;;;;;;5103404;27;20074;-64
2023/09/25 05:04:14;;;;;;;11.80;11.30;;;;;;;;;;5095217;27;20036;-63
2023/09/25 05:06:39;;;;;;;11.68;11.18;;;;;;;;;;5099355;27;20047;-61
2023/09/25 05:09:05;;;;;;;11.70;11.20;;;;;;;;;;5101189;27;20039;-63
2023/09/25 05:11:30;;;;;;;11.02;10.52;;;;;;;;;;5109371;27;20176;-62
2023/09/25 05:13:55;;;;;;;11.95;11.45;;;;;;;;;;5088425;27;20019;-63
2023/09/25 05:16:20;;;;;;;11.70;11.20;;;;;;;;;;5102315;27;20035;-63
2023/09/25 05:18:46;;;;;;;11.60;11.10;;;;;;;;;;5106796;27;20019;-63
2023/09/25 05:21:17;;;;;;;11.60;11.10;;;;;;;;;;5104934;27;20062;-63
2023/09/25 05:23:42;;;;;;;11.25;10.75;;;;;;;;;;5099261;27;20016;-64
2023/09/25 05:26:08;;;;;;;11.90;11.40;;;;;;;;;;5104250;27;20471;-63
2023/09/25 05:28:33;;;;;;;11.35;10.85;;;;;;;;;;5107751;28;20016;-63
2023/09/25 05:30:59;;;;;;;11.65;11.15;;;;;;;;;;5100595;28;20012;-65
2023/09/25 05:33:26;;;;;;;11.90;11.40;;;;;;;;;;5099632;28;20039;-64
2023/09/25 05:35:51;;;;;;;12.48;11.88;;;;;;;;;;5106013;27;20415;-63
2023/09/25 05:38:16;;;;;;;12.57;11.98;;;;;;;;;;5101646;27;20031;-64
2023/09/25 05:40:42;;;;;;;11.90;11.40;;;;;;;;;;5102139;27;20057;-69
2023/09/25 05:43:07;;;;;;;11.50;11.00;;;;;;;;;;5105633;28;20084;-63
2023/09/25 05:45:32;;;;;;;11.57;11.07;;;;;;;;;;5109088;27;20027;-65
2023/09/25 05:47:58;;;;;;;12.25;11.68;;;;;;;;;;5079744;28;20023;-63
2023/09/25 05:50:25;;;;;;;11.55;11.05;;;;;;;;;;5099336;28;20023;-64
2023/09/25 05:52:50;;;;;;;11.30;10.80;;;;;;;;;;5105917;28;20051;-63
2023/09/25 05:55:15;;;;;;;11.73;11.23;;;;;;;;;;5100321;27;20515;-64
2023/09/25 05:57:41;;;;;;;11.60;11.10;;;;;;;;;;5092769;27;20020;-64
2023/09/25 06:00:12;;;;;;;11.88;11.38;;;;;;;;;;5104462;27;20027;-63
2023/09/25 06:02:40;;;;;;;12.00;11.50;;;;;;;;;;5107320;27;20035;-64
2023/09/25 06:05:06;;;;;;;11.68;11.18;;;;;;;;;;5098386;27;20412;-64
2023/09/25 06:07:31;;;;;;;11.20;10.70;;;;;;;;;;5105199;27;20024;-65
2023/09/25 06:09:57;;;;;;;11.77;11.27;;;;;;;;;;5107503;27;20026;-64
2023/09/25 06:12:23;;;;;;;11.98;11.48;;;;;;;;;;5098930;28;20022;-64
2023/09/25 06:14:49;;;;;;;11.90;11.40;;;;;;;;;;5106303;27;20064;-65
2023/09/25 06:17:15;;;;;;;11.80;11.30;;;;;;;;;;5095156;27;20032;-64
2023/09/25 06:19:41;;;;;;;11.95;11.45;;;;;;;;;;5077551;28;20035;-64
2023/09/25 06:22:06;;;;;;;11.52;11.02;;;;;;;;;;5108655;27;20031;-63
2023/09/25 06:24:32;;;;;;;11.27;10.77;;;;;;;;;;5085604;28;20494;-63
2023/09/25 06:26:57;;;;;;;12.02;11.52;;;;;;;;;;5106984;28;20019;-64
2023/09/25 06:29:22;;;;;;;11.95;11.45;;;;;;;;;;5098243;27;20019;-64
2023/09/25 06:31:48;;;;;;;11.77;11.27;;;;;;;;;;5107768;27;20099;-62
2023/09/25 06:34:14;;;;;;;11.75;11.25;;;;;;;;;;5090723;28;20023;-62
2023/09/25 06:36:39;;;;;;;11.73;11.23;;;;;;;;;;5109070;27;20020;-61
2023/09/25 06:39:09;;;;;;;12.00;11.50;;;;;;;;;;5107336;27;20099;-61
2023/09/25 06:41:39;;;;;;;12.32;11.73;;;;;;;;;;5108194;28;20036;-66
2023/09/25 06:44:05;;;;;;;12.00;11.50;;;;;;;;;;5112753;28;20023;-64
2023/09/25 06:46:31;;;;;;;12.20;11.70;;;;;;;;;;5109655;27;20076;-64
2023/09/25 06:48:57;;;;;;;11.85;11.35;;;;;;;;;;5104423;28;20034;-66
2023/09/25 06:51:23;;;;;;;11.80;11.30;;;;;;;;;;5103803;27;20023;-65
2023/09/25 06:53:48;;;;;;;12.32;11.80;;;;;;;;;;5089172;28;20012;-66
2023/09/25 06:56:14;;;;;;;12.30;11.80;;;;;;;;;;5065422;28;20047;-65
2023/09/25 06:58:40;;;;;;;12.13;11.63;;;;;;;;;;5091670;27;20015;-63
2023/09/25 07:01:07;;;;;;;12.05;11.55;;;;;;;;;;5099799;27;20022;-64
2023/09/25 07:03:32;;;;;;;12.40;11.85;;;;;;;;;;5101771;27;20471;-62
2023/09/25 07:05:58;;;;;;;12.02;11.52;;;;;;;;;;5094076;27;20046;-63
2023/09/25 07:08:23;;;;;;;12.57;11.98;;;;;;;;;;5093118;27;20024;-63
2023/09/25 07:10:49;;;;;;;11.98;11.48;;;;;;;;;;5100986;27;20031;-64
2023/09/25 07:13:18;;;;;;;11.98;11.48;;;;;;;;;;5103769;27;20112;-65
2023/09/25 07:15:44;;;;;;;11.82;11.32;;;;;;;;;;5099314;28;20027;-65
2023/09/25 07:18:09;;;;;;;11.95;11.45;;;;;;;;;;5103396;27;20019;-63
2023/09/25 07:20:35;;;;;;;11.80;11.30;;;;;;;;;;5102089;27;20031;-64
2023/09/25 07:23:00;;;;;;;11.82;11.32;;;;;;;;;;5109561;27;20023;-63
2023/09/25 07:25:25;;;;;;;12.15;11.65;;;;;;;;;;5103675;27;20065;-63
2023/09/25 07:27:51;;;;;;;12.23;11.73;;;;;;;;;;5094802;28;20059;-65
2023/09/25 07:30:16;;;;;;;12.32;11.82;;;;;;;;;;5105332;27;20039;-64
2023/09/25 07:32:42;;;;;;;12.27;11.77;;;;;;;;;;5102778;28;20023;-65
2023/09/25 07:35:15;;;;;;;12.70;12.10;;;;;;;;;;5101566;28;20017;-65
2023/09/25 07:37:41;;;;;;;12.52;11.93;;;;;;;;;;5106312;27;20027;-65
2023/09/25 07:40:11;;;;;;;12.60;12.00;;;;;;;;;;5105095;27;20047;-65
2023/09/25 07:42:38;;;;;;;12.82;12.23;;;;;;;;;;5099756;27;20019;-65
2023/09/25 07:45:05;;;;;;;12.40;11.90;;;;;;;;;;5106028;27;20332;-64
2023/09/25 07:47:31;;;;;;;12.50;11.93;;;;;;;;;;5107302;27;20474;-64
2023/09/25 07:49:57;;;;;;;12.60;12.00;;;;;;;;;;5107078;27;20031;-65
2023/09/25 07:52:24;;;;;;;12.32;11.82;;;;;;;;;;5108197;27;20042;-64
2023/09/25 07:54:50;;;;;;;12.07;11.57;;;;;;;;;;5103632;27;20026;-66
2023/09/25 07:57:16;;;;;;;12.18;11.68;;;;;;;;;;5103308;27;20019;-64
2023/09/25 07:59:42;;;;;;;12.70;12.10;;;;;;;;;;5104961;27;20103;-65
2023/09/25 08:02:12;;;;;;;12.25;11.75;;;;;;;;;;5103064;27;20118;-66
2023/09/25 08:04:37;;;;;;;12.18;11.68;;;;;;;;;;5101316;28;20074;-63
2023/09/25 08:07:03;;;;;;;12.15;11.65;;;;;;;;;;5102778;28;20023;-65
2023/09/25 08:09:28;;;;;;;12.30;11.80;;;;;;;;;;5106646;27;20012;-63
2023/09/25 08:11:54;;;;;;;12.40;11.90;;;;;;;;;;5083817;27;20038;-66
2023/09/25 08:14:19;;;;;;;12.07;11.57;;;;;;;;;;5105747;27;20092;-62
2023/09/25 08:16:44;;;;;;;12.40;11.85;;;;;;;;;;5109556;27;20015;-63
2023/09/25 08:19:11;;;;;;;12.25;11.75;;;;;;;;;;5102064;27;20044;-64
2023/09/25 08:21:36;;;;;;;12.00;11.50;;;;;;;;;;5104509;28;20489;-61
2023/09/25 08:24:02;;;;;;;12.20;11.70;;;;;;;;;;5104548;28;20023;-62
2023/09/25 08:26:29;;;;;;;12.00;11.50;;;;;;;;;;5100154;28;20284;-63
2023/09/25 08:28:57;;;;;;;12.55;11.95;;;;;;;;;;5106340;27;20063;-65
2023/09/25 08:31:22;;;;;;;12.45;11.90;;;;;;;;;;5100246;28;20040;-65
2023/09/25 08:33:48;;;;;;;12.05;11.55;;;;;;;;;;5094768;28;20047;-64
2023/09/25 08:36:13;;;;;;;12.10;11.60;;;;;;;;;;5103104;28;20024;-63
2023/09/25 08:38:39;;;;;;;12.55;11.95;;;;;;;;;;5099802;28;20346;-63
2023/09/25 08:41:04;;;;;;;12.30;11.80;;;;;;;;;;5098865;28;20027;-63
2023/09/25 08:43:30;;;;;;;12.20;11.70;;;;;;;;;;5106513;28;20035;-62
2023/09/25 08:45:55;;;;;;;11.98;11.48;;;;;;;;;;5099739;28;20023;-62
2023/09/25 08:48:21;;;;;;;12.30;11.80;;;;;;;;;;5101735;28;20028;-61
2023/09/25 08:50:46;;;;;;;12.23;11.73;;;;;;;;;;5099693;28;20031;-63
2023/09/25 08:53:11;;;;;;;11.80;11.30;;;;;;;;;;5107499;28;20291;-64
2023/09/25 08:55:37;;;;;;;12.30;11.80;;;;;;;;;;5106854;28;20474;-63
2023/09/25 08:58:07;;;;;;;12.45;11.88;;;;;;;;;;5099499;28;20271;-64
2023/09/25 09:00:33;;;;;;;12.48;11.93;;;;;;;;;;5098759;28;20606;-64
2023/09/25 09:02:58;;;;;;;12.35;11.85;;;;;;;;;;5096765;28;20024;-64
2023/09/25 09:05:24;;;;;;;12.05;11.55;;;;;;;;;;5083563;28;20052;-66
2023/09/25 09:08:05;;;;;;;12.90;12.30;;;;;;;;;;5102766;28;20028;-63
2023/09/25 09:10:31;;;;;;;12.93;12.32;;;;;;;;;;5089930;28;20032;-63
2023/09/25 09:12:56;;;;;;;12.05;11.55;;;;;;;;;;5100654;28;20375;-64
2023/09/25 09:15:26;;;;;;;12.25;11.75;;;;;;;;;;5102217;28;20023;-62
2023/09/25 09:17:52;;;;;;;12.07;11.57;;;;;;;;;;5097636;28;20153;-63
2023/09/25 09:20:17;;;;;;;12.52;11.93;;;;;;;;;;5095927;28;20123;-64
2023/09/25 09:22:52;;;;;;;12.45;11.88;;;;;;;;;;5098833;28;20024;-64
2023/09/25 09:25:24;;;;;;;12.40;11.88;;;;;;;;;;5104414;28;20031;-65
2023/09/25 09:27:49;;;;;;;12.50;11.95;;;;;;;;;;5098507;28;20038;-65
2023/09/25 09:30:19;;;;;;;12.73;12.13;;;;;;;;;;5098890;28;20015;-63
2023/09/25 09:32:48;;;;;;;12.80;12.20;;;;;;;;;;5102022;28;20263;-65
2023/09/25 09:35:14;;;;;;;12.70;12.10;;;;;;;;;;5080678;28;20036;-65
2023/09/25 09:37:39;;;;;;;12.10;11.60;;;;;;;;;;5103784;27;20020;-65
2023/09/25 09:40:11;;;;;;;12.60;12.00;;;;;;;;;;5107704;27;20027;-67
2023/09/25 09:42:37;;;;;;;12.38;11.88;;;;;;;;;;5108306;27;20850;-67
2023/09/25 09:45:03;;;;;;;12.57;11.98;;;;;;;;;;5103674;27;20026;-66
2023/09/25 09:47:30;;;;;;;12.32;11.82;;;;;;;;;;5104496;27;20088;-63
2023/09/25 09:49:55;;;;;;;12.80;12.20;;;;;;;;;;5105210;27;20053;-65
2023/09/25 09:52:21;;;;;;;12.77;12.18;;;;;;;;;;5103086;27;20051;-64
2023/09/25 09:54:47;;;;;;;13.38;12.77;;;;;;;;;;5105517;27;20063;-68
2023/09/25 09:57:13;;;;;;;12.90;12.30;;;;;;;;;;5105528;27;20467;-65
2023/09/25 09:59:39;;;;;;;12.73;12.13;;;;;;;;;;5109954;28;20023;-66
2023/09/25 10:02:04;;;;;;;12.23;11.73;;;;;;;;;;5114662;27;20374;-66
2023/09/25 10:04:30;;;;;;;12.25;11.75;;;;;;;;;;5103164;27;20050;-65
2023/09/25 10:07:08;;;;;;;12.30;11.80;;;;;;;;;;5103279;27;20408;-66
2023/09/25 10:09:34;;;;;;;12.05;11.55;;;;;;;;;;5106703;27;20043;-66
2023/09/25 10:12:01;;;;;;;12.95;12.35;;;;;;;;;;5106140;27;20016;-64
2023/09/25 10:14:29;;;;;;;12.40;11.85;;;;;;;;;;5096646;27;20048;-66
2023/09/25 10:16:59;;;;;;;12.57;11.98;;;;;;;;;;5103757;27;20328;-70
2023/09/25 10:19:45;;;;;;;12.25;11.75;;;;;;;;;;5103043;27;20051;-67
2023/09/25 10:22:11;;;;;;;12.45;11.88;;;;;;;;;;5096410;27;20102;-67
2023/09/25 10:24:36;;;;;;;12.60;12.00;;;;;;;;;;5101850;27;20107;-67
2023/09/25 10:27:02;;;;;;;12.63;12.02;;;;;;;;;;5092799;27;20059;-66
2023/09/25 10:29:28;;;;;;;12.10;11.60;;;;;;;;;;5096641;27;20549;-67
2023/09/25 10:31:53;;;;;;;12.60;12.00;;;;;;;;;;5096621;27;20637;-67
2023/09/25 10:34:21;;;;;;;12.60;12.00;;;;;;;;;;5102491;27;20050;-66
2023/09/25 10:36:49;;;;;;;12.68;12.07;;;;;;;;;;5097920;27;20440;-63
2023/09/25 10:39:18;;;;;;;12.85;12.25;;;;;;;;;;5105904;27;20447;-65
2023/09/25 10:41:47;;;;;;;12.50;11.90;;;;;;;;;;5106517;27;20019;-64
2023/09/25 10:44:12;;;;;;;12.45;11.90;;;;;;;;;;5105238;27;20121;-64
2023/09/25 10:46:38;;;;;;;12.55;11.95;;;;;;;;;;5099022;27;20475;-66
2023/09/25 10:49:05;;;;;;;12.30;11.80;;;;;;;;;;5099468;28;20016;-63
2023/09/25 10:51:31;;;;;;;12.32;11.82;;;;;;;;;;5095271;27;22939;-64
2023/09/25 10:53:56;;;;;;;12.30;11.77;;;;;;;;;;5100221;27;20471;-63
2023/09/25 10:56:21;;;;;;;11.90;11.40;;;;;;;;;;5105412;27;20016;-67
2023/09/25 10:58:47;;;;;;;12.27;11.75;;;;;;;;;;5101351;27;20806;-65
2023/09/25 11:01:14;;;;;;;11.90;11.40;;;;;;;;;;5099198;27;20162;-64
2023/09/25 11:03:39;;;;;;;12.10;11.60;;;;;;;;;;5098555;27;20548;-64
2023/09/25 11:06:05;;;;;;;12.20;11.70;;;;;;;;;;5099316;27;20027;-64
2023/09/25 11:08:33;;;;;;;12.07;11.57;;;;;;;;;;5100940;27;20070;-65
2023/09/25 11:10:59;;;;;;;12.20;11.70;;;;;;;;;;5100573;27;20022;-65
2023/09/25 11:13:25;;;;;;;12.60;12.00;;;;;;;;;;5103557;27;20028;-68
2023/09/25 11:15:50;;;;;;;12.43;11.88;;;;;;;;;;5099275;27;20028;-66
2023/09/25 11:18:17;;;;;;;12.05;11.55;;;;;;;;;;5098661;28;20034;-64
2023/09/25 11:20:44;;;;;;;12.68;12.07;;;;;;;;;;5084200;28;20441;-65
2023/09/25 11:23:10;;;;;;;12.45;11.88;;;;;;;;;;5100384;27;20076;-68
2023/09/25 11:25:53;;;;;;;12.25;11.75;;;;;;;;;;5096500;27;20038;-65
2023/09/25 11:28:25;;;;;;;11.90;11.40;;;;;;;;;;5095777;27;20055;-66
2023/09/25 11:30:50;;;;;;;12.00;11.50;;;;;;;;;;5099423;27;20264;-65
2023/09/25 11:33:21;;;;;;;12.00;11.50;;;;;;;;;;5096849;28;20038;-66
2023/09/25 11:35:49;;;;;;;11.95;11.45;;;;;;;;;;5101516;27;20718;-64
2023/09/25 11:38:21;;;;;;;12.18;11.68;;;;;;;;;;5101063;27;20032;-65
2023/09/25 11:40:47;;;;;;;11.70;11.20;;;;;;;;;;5096194;27;20019;-66
2023/09/25 11:43:13;;;;;;;12.07;11.57;;;;;;;;;;5095356;27;20106;-64
2023/09/25 11:45:41;;;;;;;12.10;11.60;;;;;;;;;;5083823;28;20368;-64
2023/09/25 11:48:10;;;;;;;12.43;11.85;;;;;;;;;;5098604;27;20102;-65
2023/09/25 11:50:36;;;;;;;12.10;11.60;;;;;;;;;;5106687;27;20491;-66
2023/09/25 11:53:02;;;;;;;12.20;11.70;;;;;;;;;;5098583;27;20090;-65
2023/09/25 11:55:28;;;;;;;12.02;11.52;;;;;;;;;;5102774;27;20023;-63
2023/09/25 11:57:54;;;;;;;11.63;11.13;;;;;;;;;;5102839;27;20036;-63
2023/09/25 12:00:19;;;;;;;12.02;11.52;;;;;;;;;;5110951;27;20523;-64
2023/09/25 12:02:48;;;;;;;11.68;11.18;;;;;;;;;;5095738;28;20023;-65
2023/09/25 12:05:14;;;;;;;11.90;11.40;;;;;;;;;;5114135;27;20134;-64
2023/09/25 12:07:40;;;;;;;12.35;11.82;;;;;;;;;;5101817;27;20073;-65
2023/09/25 12:10:06;;;;;;;12.00;11.50;;;;;;;;;;5095727;27;20082;-65
2023/09/25 12:12:32;;;;;;;12.48;11.93;;;;;;;;;;5100722;28;20428;-64
2023/09/25 12:14:58;;;;;;;12.13;11.63;;;;;;;;;;5099489;27;20027;-64
2023/09/25 12:17:25;;;;;;;12.20;11.70;;;;;;;;;;5099253;27;20034;-64
2023/09/25 12:19:51;;;;;;;12.05;11.55;;;;;;;;;;5099233;27;20208;-63
2023/09/25 12:22:16;;;;;;;12.30;11.80;;;;;;;;;;5081435;28;20951;-64
2023/09/25 12:24:41;;;;;;;11.88;11.38;;;;;;;;;;5102348;28;20027;-64
2023/09/25 12:27:07;;;;;;;11.90;11.40;;;;;;;;;;5100689;27;20076;-65
2023/09/25 12:29:32;;;;;;;12.25;11.75;;;;;;;;;;5099615;27;20055;-64
2023/09/25 12:31:57;;;;;;;13.07;12.48;;;;;;;;;;5099579;28;20146;-65
2023/09/25 12:34:23;;;;;;;11.95;11.45;;;;;;;;;;5107520;28;20510;-64
2023/09/25 12:36:48;;;;;;;12.07;11.57;;;;;;;;;;5103644;27;20711;-65
2023/09/25 12:39:16;;;;;;;12.15;11.65;;;;;;;;;;5106422;28;20463;-66
2023/09/25 12:41:41;;;;;;;12.07;11.57;;;;;;;;;;5099996;28;20020;-64
2023/09/25 12:44:08;;;;;;;12.07;11.57;;;;;;;;;;5098494;28;20035;-65
2023/09/25 12:46:34;;;;;;;12.07;11.57;;;;;;;;;;5101553;28;20039;-65
2023/09/25 12:48:59;;;;;;;11.98;11.48;;;;;;;;;;5106659;28;20011;-64
2023/09/25 12:51:26;;;;;;;11.43;10.93;;;;;;;;;;5096690;28;20527;-64
2023/09/25 12:53:51;;;;;;;12.10;11.60;;;;;;;;;;5101156;28;20046;-66
2023/09/25 12:56:16;;;;;;;11.98;11.48;;;;;;;;;;5095170;28;20746;-65
2023/09/25 12:58:42;;;;;;;12.00;11.50;;;;;;;;;;5097733;28;20038;-65
2023/09/25 13:01:07;;;;;;;12.10;11.60;;;;;;;;;;5096014;28;20022;-64
2023/09/25 13:03:32;;;;;;;12.05;11.55;;;;;;;;;;5099815;28;20042;-65
2023/09/25 13:05:58;;;;;;;12.07;11.57;;;;;;;;;;5102314;28;20090;-62
2023/09/25 13:08:23;;;;;;;12.27;11.77;;;;;;;;;;5094440;28;20027;-64
2023/09/25 13:10:51;;;;;;;11.95;11.45;;;;;;;;;;5102622;28;20023;-64
2023/09/25 13:13:17;;;;;;;12.27;11.77;;;;;;;;;;5102082;27;20024;-68
2023/09/25 13:15:42;;;;;;;12.63;12.02;;;;;;;;;;5106522;27;20510;-64
2023/09/25 13:18:07;;;;;;;12.00;11.50;;;;;;;;;;5103949;27;20016;-63
2023/09/25 13:20:32;;;;;;;12.38;11.85;;;;;;;;;;5095558;27;20024;-63
2023/09/25 13:22:58;;;;;;;11.93;11.43;;;;;;;;;;5104832;27;20063;-63
2023/09/25 13:25:24;;;;;;;12.02;11.52;;;;;;;;;;5106214;27;20234;-63
2023/09/25 13:27:50;;;;;;;12.05;11.55;;;;;;;;;;5102850;27;20343;-63
2023/09/25 13:30:18;;;;;;;11.98;11.48;;;;;;;;;;5105023;27;20073;-65
2023/09/25 13:32:43;;;;;;;11.82;11.32;;;;;;;;;;5106472;27;20056;-64
2023/09/25 13:35:09;;;;;;;11.63;11.13;;;;;;;;;;5102846;27;20442;-65
2023/09/25 13:37:36;;;;;;;11.70;11.20;;;;;;;;;;5103349;27;20031;-65
2023/09/25 13:40:01;;;;;;;12.30;11.80;;;;;;;;;;5105686;27;20028;-64
2023/09/25 13:42:26;;;;;;;11.88;11.38;;;;;;;;;;5109166;27;20042;-69
2023/09/25 13:44:52;;;;;;;11.65;11.15;;;;;;;;;;5108165;27;20023;-64
2023/09/25 13:47:17;;;;;;;12.00;11.50;;;;;;;;;;5103109;27;20034;-67
2023/09/25 13:49:43;;;;;;;12.60;12.00;;;;;;;;;;5103662;27;20019;-66
2023/09/25 13:52:09;;;;;;;12.20;11.70;;;;;;;;;;5101112;27;20081;-65
2023/09/25 13:54:34;;;;;;;11.55;11.05;;;;;;;;;;5106939;27;20466;-64
2023/09/25 13:57:00;;;;;;;11.80;11.30;;;;;;;;;;5091035;27;20031;-62
2023/09/25 13:59:25;;;;;;;11.63;11.13;;;;;;;;;;5103253;27;20534;-62
2023/09/25 14:01:50;;;;;;;11.82;11.32;;;;;;;;;;5107503;27;20276;-61
2023/09/25 14:04:16;;;;;;;11.85;11.35;;;;;;;;;;5107164;27;20055;-62
2023/09/25 14:06:41;;;;;;;11.95;11.45;;;;;;;;;;5104868;27;20028;-63
2023/09/25 14:09:08;;;;;;;12.15;11.65;;;;;;;;;;5100856;28;20364;-62